Goodnews Bay, Alaska
Current Conditions -  °F | °C
As of 5:56 PM on Saturday 20 Dec 2014 (Local Time) from PAPM Reporting Station
Clear Clear  
Wind Chill: -1°   Ceiling: Unl
Heat Index: 13°   Visibility: 10mi
Dew Point: 10°   Wind: 13mph
Humidity: 88%   Direction: 330°NNW
Pressure: 29"   Gusts: NA
Location:  59.12°N, 161.59°W
Report Text: PAPM 210256Z AUTO 33011KT 10SM CLR M11/M12 A2900 RMK AO2 TSNO 53007 T11051122 SLP822 $
Loading
Personal Weather Stations






























Interactive Weather Map New forecast layout! Learn more

10-Day Weather Forecast

Advertisements
Track Severe Weather on mobile